sensor_id;sensor_type;location;lat;lon;timestamp;P1;durP1;ratioP1;P2;durP2;ratioP2
4614;SDS011;2320;51.362;6.946;2024-02-04T00:01:32;14.33;;;12.10;;
4614;SDS011;2320;51.362;6.946;2024-02-04T00:03:58;18.97;;;11.90;;
4614;SDS011;2320;51.362;6.946;2024-02-04T00:06:23;13.20;;;10.30;;
4614;SDS011;2320;51.362;6.946;2024-02-04T00:08:49;11.33;;;10.13;;
4614;SDS011;2320;51.362;6.946;2024-02-04T00:11:15;12.90;;;9.80;;
4614;SDS011;2320;51.362;6.946;2024-02-04T00:13:41;13.30;;;10.47;;
4614;SDS011;2320;51.362;6.946;2024-02-04T00:16:07;11.67;;;9.77;;
4614;SDS011;2320;51.362;6.946;2024-02-04T00:18:33;10.33;;;9.13;;
4614;SDS011;2320;51.362;6.946;2024-02-04T00:20:59;11.57;;;8.93;;
4614;SDS011;2320;51.362;6.946;2024-02-04T00:23:24;16.90;;;13.20;;
4614;SDS011;2320;51.362;6.946;2024-02-04T00:25:50;9.27;;;8.37;;
4614;SDS011;2320;51.362;6.946;2024-02-04T00:28:15;9.37;;;7.87;;
4614;SDS011;2320;51.362;6.946;2024-02-04T00:30:43;8.70;;;7.20;;
4614;SDS011;2320;51.362;6.946;2024-02-04T00:33:08;11.00;;;6.63;;
4614;SDS011;2320;51.362;6.946;2024-02-04T00:35:34;7.07;;;6.07;;
4614;SDS011;2320;51.362;6.946;2024-02-04T00:37:59;6.67;;;5.70;;
4614;SDS011;2320;51.362;6.946;2024-02-04T00:40:27;4.37;;;3.97;;
4614;SDS011;2320;51.362;6.946;2024-02-04T00:42:53;4.70;;;2.90;;
4614;SDS011;2320;51.362;6.946;2024-02-04T00:45:19;3.50;;;3.20;;
4614;SDS011;2320;51.362;6.946;2024-02-04T00:47:44;3.40;;;3.10;;
4614;SDS011;2320;51.362;6.946;2024-02-04T00:50:10;4.23;;;3.83;;
4614;SDS011;2320;51.362;6.946;2024-02-04T00:52:36;3.67;;;3.37;;
4614;SDS011;2320;51.362;6.946;2024-02-04T00:55:01;4.43;;;3.77;;
4614;SDS011;2320;51.362;6.946;2024-02-04T00:57:27;4.10;;;3.80;;
4614;SDS011;2320;51.362;6.946;2024-02-04T00:59:52;4.73;;;4.20;;
4614;SDS011;2320;51.362;6.946;2024-02-04T01:02:18;5.70;;;4.13;;
4614;SDS011;2320;51.362;6.946;2024-02-04T01:04:44;5.97;;;4.90;;
4614;SDS011;2320;51.362;6.946;2024-02-04T01:07:09;5.00;;;4.50;;
4614;SDS011;2320;51.362;6.946;2024-02-04T01:09:35;5.50;;;4.67;;
4614;SDS011;2320;51.362;6.946;2024-02-04T01:12:00;4.53;;;4.13;;
4614;SDS011;2320;51.362;6.946;2024-02-04T01:14:26;5.13;;;4.10;;
4614;SDS011;2320;51.362;6.946;2024-02-04T01:16:52;3.97;;;3.67;;
4614;SDS011;2320;51.362;6.946;2024-02-04T01:19:17;4.43;;;4.00;;
4614;SDS011;2320;51.362;6.946;2024-02-04T01:21:43;5.90;;;5.20;;
4614;SDS011;2320;51.362;6.946;2024-02-04T01:24:09;5.47;;;4.60;;
4614;SDS011;2320;51.362;6.946;2024-02-04T01:26:35;5.27;;;4.63;;
4614;SDS011;2320;51.362;6.946;2024-02-04T01:29:00;6.10;;;5.00;;
4614;SDS011;2320;51.362;6.946;2024-02-04T01:31:26;6.50;;;6.00;;
4614;SDS011;2320;51.362;6.946;2024-02-04T01:33:52;7.67;;;6.97;;
4614;SDS011;2320;51.362;6.946;2024-02-04T01:36:17;6.67;;;5.77;;
4614;SDS011;2320;51.362;6.946;2024-02-04T01:38:43;9.80;;;7.67;;
4614;SDS011;2320;51.362;6.946;2024-02-04T01:41:09;7.07;;;6.37;;
4614;SDS011;2320;51.362;6.946;2024-02-04T01:43:34;7.70;;;6.90;;
4614;SDS011;2320;51.362;6.946;2024-02-04T01:46:01;7.67;;;6.90;;
4614;SDS011;2320;51.362;6.946;2024-02-04T01:48:27;7.13;;;6.43;;
4614;SDS011;2320;51.362;6.946;2024-02-04T01:50:53;7.50;;;6.53;;
4614;SDS011;2320;51.362;6.946;2024-02-04T01:53:22;7.80;;;7.00;;
4614;SDS011;2320;51.362;6.946;2024-02-04T01:55:50;9.33;;;8.03;;
4614;SDS011;2320;51.362;6.946;2024-02-04T01:58:16;12.43;;;6.57;;
4614;SDS011;2320;51.362;6.946;2024-02-04T02:00:42;9.00;;;8.00;;
4614;SDS011;2320;51.362;6.946;2024-02-04T02:03:08;7.37;;;5.90;;
4614;SDS011;2320;51.362;6.946;2024-02-04T02:05:37;9.97;;;7.93;;
4614;SDS011;2320;51.362;6.946;2024-02-04T02:08:02;9.17;;;8.27;;
4614;SDS011;2320;51.362;6.946;2024-02-04T02:10:28;7.63;;;6.93;;
4614;SDS011;2320;51.362;6.946;2024-02-04T02:13:04;8.83;;;7.93;;
4614;SDS011;2320;51.362;6.946;2024-02-04T02:15:39;8.17;;;6.93;;
4614;SDS011;2320;51.362;6.946;2024-02-04T02:18:10;11.17;;;8.70;;
4614;SDS011;2320;51.362;6.946;2024-02-04T02:23:21;7.07;;;6.40;;
4614;SDS011;2320;51.362;6.946;2024-02-04T02:25:49;8.13;;;7.10;;
4614;SDS011;2320;51.362;6.946;2024-02-04T02:28:17;8.60;;;7.70;;
4614;SDS011;2320;51.362;6.946;2024-02-04T02:30:42;8.43;;;7.30;;
4614;SDS011;2320;51.362;6.946;2024-02-04T02:33:08;9.13;;;8.17;;
4614;SDS011;2320;51.362;6.946;2024-02-04T02:35:34;9.60;;;7.87;;
4614;SDS011;2320;51.362;6.946;2024-02-04T02:40:39;8.30;;;7.53;;
4614;SDS011;2320;51.362;6.946;2024-02-04T02:43:10;10.23;;;8.57;;
4614;SDS011;2320;51.362;6.946;2024-02-04T02:45:37;9.90;;;8.27;;
4614;SDS011;2320;51.362;6.946;2024-02-04T02:48:06;10.90;;;9.63;;
4614;SDS011;2320;51.362;6.946;2024-02-04T02:50:33;13.20;;;10.53;;
4614;SDS011;2320;51.362;6.946;2024-02-04T02:53:00;12.60;;;11.30;;
4614;SDS011;2320;51.362;6.946;2024-02-04T02:55:25;11.97;;;10.63;;
4614;SDS011;2320;51.362;6.946;2024-02-04T02:57:51;12.70;;;10.30;;
4614;SDS011;2320;51.362;6.946;2024-02-04T03:00:16;12.50;;;10.97;;
4614;SDS011;2320;51.362;6.946;2024-02-04T03:02:42;13.40;;;11.13;;
4614;SDS011;2320;51.362;6.946;2024-02-04T03:05:08;15.60;;;11.90;;
4614;SDS011;2320;51.362;6.946;2024-02-04T03:07:34;12.67;;;11.30;;
4614;SDS011;2320;51.362;6.946;2024-02-04T03:10:00;13.90;;;11.80;;
4614;SDS011;2320;51.362;6.946;2024-02-04T03:12:25;15.03;;;11.73;;
4614;SDS011;2320;51.362;6.946;2024-02-04T03:14:51;16.90;;;13.50;;
4614;SDS011;2320;51.362;6.946;2024-02-04T03:17:17;14.57;;;12.00;;
4614;SDS011;2320;51.362;6.946;2024-02-04T03:19:46;16.93;;;12.50;;
4614;SDS011;2320;51.362;6.946;2024-02-04T03:22:12;15.80;;;13.67;;
4614;SDS011;2320;51.362;6.946;2024-02-04T03:24:38;13.97;;;11.90;;
4614;SDS011;2320;51.362;6.946;2024-02-04T03:27:03;17.03;;;12.80;;
4614;SDS011;2320;51.362;6.946;2024-02-04T03:29:29;14.70;;;11.53;;
4614;SDS011;2320;51.362;6.946;2024-02-04T03:31:58;15.37;;;12.63;;
4614;SDS011;2320;51.362;6.946;2024-02-04T03:34:23;15.50;;;12.83;;
4614;SDS011;2320;51.362;6.946;2024-02-04T03:36:49;12.00;;;10.33;;
4614;SDS011;2320;51.362;6.946;2024-02-04T03:39:15;11.80;;;10.27;;
4614;SDS011;2320;51.362;6.946;2024-02-04T03:41:40;12.43;;;10.03;;
4614;SDS011;2320;51.362;6.946;2024-02-04T03:44:06;10.57;;;9.03;;
4614;SDS011;2320;51.362;6.946;2024-02-04T03:46:31;10.20;;;8.67;;
4614;SDS011;2320;51.362;6.946;2024-02-04T03:48:57;9.50;;;8.40;;
4614;SDS011;2320;51.362;6.946;2024-02-04T03:51:23;12.67;;;9.97;;
4614;SDS011;2320;51.362;6.946;2024-02-04T03:53:49;10.67;;;8.57;;
4614;SDS011;2320;51.362;6.946;2024-02-04T03:56:16;9.70;;;8.70;;
4614;SDS011;2320;51.362;6.946;2024-02-04T03:58:41;11.53;;;9.07;;
4614;SDS011;2320;51.362;6.946;2024-02-04T04:01:10;10.83;;;7.90;;
4614;SDS011;2320;51.362;6.946;2024-02-04T04:03:40;8.47;;;7.67;;
4614;SDS011;2320;51.362;6.946;2024-02-04T04:06:06;10.07;;;8.30;;
4614;SDS011;2320;51.362;6.946;2024-02-04T04:08:31;9.60;;;7.90;;
4614;SDS011;2320;51.362;6.946;2024-02-04T04:10:57;11.57;;;8.77;;
4614;SDS011;2320;51.362;6.946;2024-02-04T04:13:24;11.47;;;9.57;;
4614;SDS011;2320;51.362;6.946;2024-02-04T04:15:50;10.87;;;9.60;;
4614;SDS011;2320;51.362;6.946;2024-02-04T04:18:16;11.07;;;9.50;;
4614;SDS011;2320;51.362;6.946;2024-02-04T04:20:41;13.13;;;10.53;;
4614;SDS011;2320;51.362;6.946;2024-02-04T04:23:07;14.17;;;10.93;;
4614;SDS011;2320;51.362;6.946;2024-02-04T04:25:33;15.87;;;11.97;;
4614;SDS011;2320;51.362;6.946;2024-02-04T04:27:58;16.00;;;13.63;;
4614;SDS011;2320;51.362;6.946;2024-02-04T04:30:24;20.43;;;14.73;;
4614;SDS011;2320;51.362;6.946;2024-02-04T04:32:50;20.03;;;14.00;;
4614;SDS011;2320;51.362;6.946;2024-02-04T04:35:16;17.83;;;13.50;;
4614;SDS011;2320;51.362;6.946;2024-02-04T04:37:42;20.93;;;16.50;;
4614;SDS011;2320;51.362;6.946;2024-02-04T04:40:08;18.43;;;14.47;;
4614;SDS011;2320;51.362;6.946;2024-02-04T04:42:34;20.63;;;15.07;;
4614;SDS011;2320;51.362;6.946;2024-02-04T04:44:59;22.60;;;15.97;;
4614;SDS011;2320;51.362;6.946;2024-02-04T04:47:25;19.03;;;15.37;;
4614;SDS011;2320;51.362;6.946;2024-02-04T04:49:50;25.93;;;17.90;;
4614;SDS011;2320;51.362;6.946;2024-02-04T04:52:16;21.67;;;16.83;;
4614;SDS011;2320;51.362;6.946;2024-02-04T04:54:42;21.67;;;17.40;;
4614;SDS011;2320;51.362;6.946;2024-02-04T04:57:07;22.33;;;18.70;;
4614;SDS011;2320;51.362;6.946;2024-02-04T04:59:33;20.03;;;16.53;;
4614;SDS011;2320;51.362;6.946;2024-02-04T05:02:01;21.90;;;17.60;;
4614;SDS011;2320;51.362;6.946;2024-02-04T05:04:26;27.53;;;17.90;;
4614;SDS011;2320;51.362;6.946;2024-02-04T05:06:52;20.00;;;17.53;;
4614;SDS011;2320;51.362;6.946;2024-02-04T05:09:17;24.40;;;18.87;;
4614;SDS011;2320;51.362;6.946;2024-02-04T05:11:43;24.93;;;19.43;;
4614;SDS011;2320;51.362;6.946;2024-02-04T05:14:09;27.40;;;20.33;;
4614;SDS011;2320;51.362;6.946;2024-02-04T05:16:34;27.23;;;20.53;;
4614;SDS011;2320;51.362;6.946;2024-02-04T05:19:00;26.97;;;20.33;;
4614;SDS011;2320;51.362;6.946;2024-02-04T05:21:29;29.13;;;22.10;;
4614;SDS011;2320;51.362;6.946;2024-02-04T05:23:54;31.57;;;22.47;;
4614;SDS011;2320;51.362;6.946;2024-02-04T05:26:20;26.90;;;21.10;;
4614;SDS011;2320;51.362;6.946;2024-02-04T05:28:46;38.23;;;21.30;;
4614;SDS011;2320;51.362;6.946;2024-02-04T05:31:11;31.17;;;22.73;;
4614;SDS011;2320;51.362;6.946;2024-02-04T05:33:37;27.40;;;20.30;;
4614;SDS011;2320;51.362;6.946;2024-02-04T05:36:02;30.20;;;21.30;;
4614;SDS011;2320;51.362;6.946;2024-02-04T05:38:29;27.90;;;21.57;;
4614;SDS011;2320;51.362;6.946;2024-02-04T05:40:55;28.17;;;21.60;;
4614;SDS011;2320;51.362;6.946;2024-02-04T05:43:21;30.20;;;19.70;;
4614;SDS011;2320;51.362;6.946;2024-02-04T05:45:46;28.73;;;19.27;;
4614;SDS011;2320;51.362;6.946;2024-02-04T05:48:12;27.90;;;22.43;;
4614;SDS011;2320;51.362;6.946;2024-02-04T05:50:38;31.63;;;21.83;;
4614;SDS011;2320;51.362;6.946;2024-02-04T05:53:04;29.93;;;20.53;;
4614;SDS011;2320;51.362;6.946;2024-02-04T05:55:29;32.37;;;22.80;;
4614;SDS011;2320;51.362;6.946;2024-02-04T05:57:55;27.43;;;20.60;;
4614;SDS011;2320;51.362;6.946;2024-02-04T06:00:21;32.10;;;22.83;;
4614;SDS011;2320;51.362;6.946;2024-02-04T06:02:46;31.50;;;22.53;;
4614;SDS011;2320;51.362;6.946;2024-02-04T06:05:12;31.53;;;23.23;;
4614;SDS011;2320;51.362;6.946;2024-02-04T06:07:38;36.67;;;23.53;;
4614;SDS011;2320;51.362;6.946;2024-02-04T06:10:04;32.33;;;22.90;;
4614;SDS011;2320;51.362;6.946;2024-02-04T06:12:30;29.90;;;21.37;;
4614;SDS011;2320;51.362;6.946;2024-02-04T06:14:56;32.33;;;24.47;;
4614;SDS011;2320;51.362;6.946;2024-02-04T06:17:22;30.67;;;22.70;;
4614;SDS011;2320;51.362;6.946;2024-02-04T06:19:47;42.17;;;24.20;;
4614;SDS011;2320;51.362;6.946;2024-02-04T06:22:14;39.70;;;26.43;;
4614;SDS011;2320;51.362;6.946;2024-02-04T06:24:40;43.07;;;24.40;;
4614;SDS011;2320;51.362;6.946;2024-02-04T06:27:06;45.60;;;25.10;;
4614;SDS011;2320;51.362;6.946;2024-02-04T06:29:32;38.47;;;23.13;;
4614;SDS011;2320;51.362;6.946;2024-02-04T06:31:58;33.40;;;22.07;;
4614;SDS011;2320;51.362;6.946;2024-02-04T06:34:23;33.50;;;22.37;;
4614;SDS011;2320;51.362;6.946;2024-02-04T06:36:49;31.23;;;21.77;;
4614;SDS011;2320;51.362;6.946;2024-02-04T06:39:15;31.73;;;22.20;;
4614;SDS011;2320;51.362;6.946;2024-02-04T06:41:41;32.33;;;21.90;;
4614;SDS011;2320;51.362;6.946;2024-02-04T06:44:06;29.80;;;20.20;;
4614;SDS011;2320;51.362;6.946;2024-02-04T06:46:32;33.43;;;20.90;;
4614;SDS011;2320;51.362;6.946;2024-02-04T06:48:58;27.70;;;19.23;;
4614;SDS011;2320;51.362;6.946;2024-02-04T06:51:23;28.30;;;19.77;;
4614;SDS011;2320;51.362;6.946;2024-02-04T06:53:49;43.83;;;20.43;;
4614;SDS011;2320;51.362;6.946;2024-02-04T06:56:14;33.63;;;19.17;;
4614;SDS011;2320;51.362;6.946;2024-02-04T06:58:40;28.60;;;16.70;;
4614;SDS011;2320;51.362;6.946;2024-02-04T07:01:07;32.20;;;17.83;;
4614;SDS011;2320;51.362;6.946;2024-02-04T07:03:32;18.87;;;15.87;;
4614;SDS011;2320;51.362;6.946;2024-02-04T07:05:58;28.83;;;16.30;;
4614;SDS011;2320;51.362;6.946;2024-02-04T07:08:24;23.93;;;17.13;;
4614;SDS011;2320;51.362;6.946;2024-02-04T07:10:50;22.10;;;15.50;;
4614;SDS011;2320;51.362;6.946;2024-02-04T07:13:16;23.47;;;16.50;;
4614;SDS011;2320;51.362;6.946;2024-02-04T07:15:42;22.33;;;15.63;;
4614;SDS011;2320;51.362;6.946;2024-02-04T07:18:08;19.33;;;13.77;;
4614;SDS011;2320;51.362;6.946;2024-02-04T07:20:33;20.33;;;14.70;;
4614;SDS011;2320;51.362;6.946;2024-02-04T07:22:59;21.23;;;13.97;;
4614;SDS011;2320;51.362;6.946;2024-02-04T07:25:24;21.70;;;14.63;;
4614;SDS011;2320;51.362;6.946;2024-02-04T07:27:50;21.37;;;14.47;;
4614;SDS011;2320;51.362;6.946;2024-02-04T07:30:16;21.87;;;16.30;;
4614;SDS011;2320;51.362;6.946;2024-02-04T07:32:42;19.03;;;13.43;;
4614;SDS011;2320;51.362;6.946;2024-02-04T07:35:07;24.03;;;16.73;;
4614;SDS011;2320;51.362;6.946;2024-02-04T07:37:34;31.13;;;14.20;;
4614;SDS011;2320;51.362;6.946;2024-02-04T07:40:00;22.60;;;15.27;;
4614;SDS011;2320;51.362;6.946;2024-02-04T07:42:26;21.40;;;14.67;;
4614;SDS011;2320;51.362;6.946;2024-02-04T07:44:52;24.03;;;13.67;;
4614;SDS011;2320;51.362;6.946;2024-02-04T07:47:18;26.23;;;16.30;;
4614;SDS011;2320;51.362;6.946;2024-02-04T07:49:46;24.20;;;14.53;;
4614;SDS011;2320;51.362;6.946;2024-02-04T07:52:13;17.00;;;12.07;;
4614;SDS011;2320;51.362;6.946;2024-02-04T07:54:38;18.13;;;12.37;;
4614;SDS011;2320;51.362;6.946;2024-02-04T07:57:04;12.93;;;11.37;;
4614;SDS011;2320;51.362;6.946;2024-02-04T07:59:30;15.70;;;11.60;;
4614;SDS011;2320;51.362;6.946;2024-02-04T08:01:55;20.53;;;12.50;;
4614;SDS011;2320;51.362;6.946;2024-02-04T08:04:21;19.27;;;12.43;;
4614;SDS011;2320;51.362;6.946;2024-02-04T08:06:47;16.87;;;11.60;;
4614;SDS011;2320;51.362;6.946;2024-02-04T08:09:13;17.07;;;10.83;;
4614;SDS011;2320;51.362;6.946;2024-02-04T08:11:38;16.23;;;11.57;;
4614;SDS011;2320;51.362;6.946;2024-02-04T08:14:04;12.93;;;8.27;;
4614;SDS011;2320;51.362;6.946;2024-02-04T08:16:30;10.53;;;7.77;;
4614;SDS011;2320;51.362;6.946;2024-02-04T08:18:56;11.20;;;8.73;;
4614;SDS011;2320;51.362;6.946;2024-02-04T08:21:21;9.03;;;6.83;;
4614;SDS011;2320;51.362;6.946;2024-02-04T08:23:47;10.77;;;8.63;;
4614;SDS011;2320;51.362;6.946;2024-02-04T08:26:13;10.50;;;7.17;;
4614;SDS011;2320;51.362;6.946;2024-02-04T08:28:38;8.63;;;7.00;;
4614;SDS011;2320;51.362;6.946;2024-02-04T08:31:04;10.40;;;8.50;;
4614;SDS011;2320;51.362;6.946;2024-02-04T08:33:30;10.57;;;7.80;;
4614;SDS011;2320;51.362;6.946;2024-02-04T08:35:55;11.63;;;8.20;;
4614;SDS011;2320;51.362;6.946;2024-02-04T08:38:21;14.30;;;10.10;;
4614;SDS011;2320;51.362;6.946;2024-02-04T08:40:46;17.03;;;10.90;;
4614;SDS011;2320;51.362;6.946;2024-02-04T08:43:12;13.47;;;10.70;;
4614;SDS011;2320;51.362;6.946;2024-02-04T08:45:38;11.53;;;10.33;;
4614;SDS011;2320;51.362;6.946;2024-02-04T08:48:03;12.50;;;9.40;;
4614;SDS011;2320;51.362;6.946;2024-02-04T08:50:29;15.20;;;11.90;;
4614;SDS011;2320;51.362;6.946;2024-02-04T08:52:55;19.73;;;10.67;;
4614;SDS011;2320;51.362;6.946;2024-02-04T08:55:20;14.17;;;9.80;;
4614;SDS011;2320;51.362;6.946;2024-02-04T08:57:46;19.23;;;14.03;;
4614;SDS011;2320;51.362;6.946;2024-02-04T09:00:13;18.17;;;12.70;;
4614;SDS011;2320;51.362;6.946;2024-02-04T09:02:39;14.50;;;11.23;;
4614;SDS011;2320;51.362;6.946;2024-02-04T09:05:05;13.60;;;10.77;;
4614;SDS011;2320;51.362;6.946;2024-02-04T09:07:31;14.60;;;10.70;;
4614;SDS011;2320;51.362;6.946;2024-02-04T09:09:57;16.67;;;11.30;;
4614;SDS011;2320;51.362;6.946;2024-02-04T09:12:23;15.13;;;10.80;;
4614;SDS011;2320;51.362;6.946;2024-02-04T09:14:48;13.10;;;9.97;;
4614;SDS011;2320;51.362;6.946;2024-02-04T09:17:14;14.90;;;11.20;;
4614;SDS011;2320;51.362;6.946;2024-02-04T09:19:39;12.37;;;10.60;;
4614;SDS011;2320;51.362;6.946;2024-02-04T09:22:05;18.87;;;11.73;;
4614;SDS011;2320;51.362;6.946;2024-02-04T09:24:31;16.63;;;11.67;;
4614;SDS011;2320;51.362;6.946;2024-02-04T09:26:57;15.17;;;11.40;;
4614;SDS011;2320;51.362;6.946;2024-02-04T09:29:23;18.33;;;10.83;;
4614;SDS011;2320;51.362;6.946;2024-02-04T09:31:48;13.63;;;10.60;;
4614;SDS011;2320;51.362;6.946;2024-02-04T09:34:18;13.47;;;9.43;;
4614;SDS011;2320;51.362;6.946;2024-02-04T09:36:44;15.23;;;10.20;;
4614;SDS011;2320;51.362;6.946;2024-02-04T09:39:09;15.63;;;11.20;;
4614;SDS011;2320;51.362;6.946;2024-02-04T09:41:35;13.00;;;10.00;;
4614;SDS011;2320;51.362;6.946;2024-02-04T09:44:01;14.73;;;9.03;;
4614;SDS011;2320;51.362;6.946;2024-02-04T09:46:29;16.37;;;10.73;;
4614;SDS011;2320;51.362;6.946;2024-02-04T09:48:55;13.93;;;9.77;;
4614;SDS011;2320;51.362;6.946;2024-02-04T09:51:21;15.03;;;10.47;;
4614;SDS011;2320;51.362;6.946;2024-02-04T09:53:49;11.63;;;9.73;;
4614;SDS011;2320;51.362;6.946;2024-02-04T09:56:17;10.97;;;9.30;;
4614;SDS011;2320;51.362;6.946;2024-02-04T09:58:44;13.57;;;9.90;;
4614;SDS011;2320;51.362;6.946;2024-02-04T10:01:10;10.97;;;8.57;;
4614;SDS011;2320;51.362;6.946;2024-02-04T10:03:38;16.57;;;9.50;;
4614;SDS011;2320;51.362;6.946;2024-02-04T10:06:03;13.57;;;10.73;;
4614;SDS011;2320;51.362;6.946;2024-02-04T10:08:29;20.87;;;15.50;;
4614;SDS011;2320;51.362;6.946;2024-02-04T10:10:55;16.80;;;10.37;;
4614;SDS011;2320;51.362;6.946;2024-02-04T10:13:20;13.67;;;10.30;;
4614;SDS011;2320;51.362;6.946;2024-02-04T10:15:47;12.83;;;10.80;;
4614;SDS011;2320;51.362;6.946;2024-02-04T10:18:13;12.97;;;9.97;;
4614;SDS011;2320;51.362;6.946;2024-02-04T10:20:39;17.80;;;10.60;;
4614;SDS011;2320;51.362;6.946;2024-02-04T10:23:04;15.33;;;10.50;;
4614;SDS011;2320;51.362;6.946;2024-02-04T10:25:30;14.03;;;10.60;;
4614;SDS011;2320;51.362;6.946;2024-02-04T10:27:56;10.40;;;9.00;;
4614;SDS011;2320;51.362;6.946;2024-02-04T10:30:23;12.70;;;9.97;;
4614;SDS011;2320;51.362;6.946;2024-02-04T10:32:52;10.37;;;8.43;;
4614;SDS011;2320;51.362;6.946;2024-02-04T10:35:19;15.30;;;10.73;;
4614;SDS011;2320;51.362;6.946;2024-02-04T10:37:47;10.47;;;8.87;;
4614;SDS011;2320;51.362;6.946;2024-02-04T10:40:17;8.53;;;7.63;;
4614;SDS011;2320;51.362;6.946;2024-02-04T10:42:43;10.67;;;8.80;;
4614;SDS011;2320;51.362;6.946;2024-02-04T10:45:09;8.43;;;7.57;;
4614;SDS011;2320;51.362;6.946;2024-02-04T10:47:39;10.50;;;8.40;;
4614;SDS011;2320;51.362;6.946;2024-02-04T10:50:05;12.13;;;9.13;;
4614;SDS011;2320;51.362;6.946;2024-02-04T10:52:35;10.13;;;8.70;;
4614;SDS011;2320;51.362;6.946;2024-02-04T10:55:03;13.23;;;9.13;;
4614;SDS011;2320;51.362;6.946;2024-02-04T10:57:34;11.50;;;8.10;;
4614;SDS011;2320;51.362;6.946;2024-02-04T11:00:00;8.50;;;7.40;;
4614;SDS011;2320;51.362;6.946;2024-02-04T11:02:29;14.43;;;7.80;;
4614;SDS011;2320;51.362;6.946;2024-02-04T11:04:58;8.60;;;7.70;;
4614;SDS011;2320;51.362;6.946;2024-02-04T11:07:24;9.43;;;7.77;;
4614;SDS011;2320;51.362;6.946;2024-02-04T11:09:51;6.27;;;5.47;;
4614;SDS011;2320;51.362;6.946;2024-02-04T11:12:18;7.57;;;6.00;;
4614;SDS011;2320;51.362;6.946;2024-02-04T11:14:47;8.63;;;5.93;;
4614;SDS011;2320;51.362;6.946;2024-02-04T11:19:55;8.47;;;6.63;;
4614;SDS011;2320;51.362;6.946;2024-02-04T11:28:04;8.67;;;7.00;;
4614;SDS011;2320;51.362;6.946;2024-02-04T11:30:33;9.47;;;6.00;;
4614;SDS011;2320;51.362;6.946;2024-02-04T11:33:01;6.87;;;5.97;;
4614;SDS011;2320;51.362;6.946;2024-02-04T11:35:28;7.93;;;7.10;;
4614;SDS011;2320;51.362;6.946;2024-02-04T11:37:54;8.60;;;7.27;;
4614;SDS011;2320;51.362;6.946;2024-02-04T11:40:20;8.50;;;7.53;;
4614;SDS011;2320;51.362;6.946;2024-02-04T11:42:48;8.40;;;7.57;;
4614;SDS011;2320;51.362;6.946;2024-02-04T11:45:14;10.73;;;8.40;;
4614;SDS011;2320;51.362;6.946;2024-02-04T11:47:41;8.50;;;7.53;;
4614;SDS011;2320;51.362;6.946;2024-02-04T11:50:07;10.80;;;8.40;;
4614;SDS011;2320;51.362;6.946;2024-02-04T11:52:34;9.73;;;8.53;;
4614;SDS011;2320;51.362;6.946;2024-02-04T11:55:00;9.93;;;8.37;;
4614;SDS011;2320;51.362;6.946;2024-02-04T11:57:26;9.00;;;8.10;;
4614;SDS011;2320;51.362;6.946;2024-02-04T11:59:52;11.63;;;9.20;;
4614;SDS011;2320;51.362;6.946;2024-02-04T12:02:22;11.53;;;8.37;;
4614;SDS011;2320;51.362;6.946;2024-02-04T12:04:48;12.00;;;7.83;;
4614;SDS011;2320;51.362;6.946;2024-02-04T12:07:14;14.53;;;8.80;;
4614;SDS011;2320;51.362;6.946;2024-02-04T12:09:40;12.93;;;8.80;;
4614;SDS011;2320;51.362;6.946;2024-02-04T12:12:06;10.60;;;7.87;;
4614;SDS011;2320;51.362;6.946;2024-02-04T12:14:33;9.57;;;8.40;;
4614;SDS011;2320;51.362;6.946;2024-02-04T12:17:09;10.70;;;8.13;;
4614;SDS011;2320;51.362;6.946;2024-02-04T12:19:38;11.87;;;9.10;;
4614;SDS011;2320;51.362;6.946;2024-02-04T12:22:04;11.10;;;9.03;;
4614;SDS011;2320;51.362;6.946;2024-02-04T12:24:34;11.20;;;9.27;;
4614;SDS011;2320;51.362;6.946;2024-02-04T12:27:01;11.47;;;9.37;;
4614;SDS011;2320;51.362;6.946;2024-02-04T12:29:28;10.70;;;8.77;;
4614;SDS011;2320;51.362;6.946;2024-02-04T12:32:00;10.47;;;8.70;;
4614;SDS011;2320;51.362;6.946;2024-02-04T12:34:27;10.23;;;8.37;;
4614;SDS011;2320;51.362;6.946;2024-02-04T12:36:57;13.13;;;8.80;;
4614;SDS011;2320;51.362;6.946;2024-02-04T12:39:24;11.03;;;8.60;;
4614;SDS011;2320;51.362;6.946;2024-02-04T12:41:50;12.93;;;10.17;;
4614;SDS011;2320;51.362;6.946;2024-02-04T12:44:17;10.20;;;8.50;;
4614;SDS011;2320;51.362;6.946;2024-02-04T12:46:43;13.03;;;9.47;;
4614;SDS011;2320;51.362;6.946;2024-02-04T12:49:09;14.17;;;10.00;;
4614;SDS011;2320;51.362;6.946;2024-02-04T12:51:36;9.70;;;8.07;;
4614;SDS011;2320;51.362;6.946;2024-02-04T12:54:05;15.17;;;8.97;;
4614;SDS011;2320;51.362;6.946;2024-02-04T12:56:47;9.07;;;7.97;;
4614;SDS011;2320;51.362;6.946;2024-02-04T13:07:00;9.53;;;8.57;;
4614;SDS011;2320;51.362;6.946;2024-02-04T13:09:26;9.77;;;8.87;;
4614;SDS011;2320;51.362;6.946;2024-02-04T13:11:52;11.53;;;7.90;;
4614;SDS011;2320;51.362;6.946;2024-02-04T13:14:17;8.70;;;7.10;;
4614;SDS011;2320;51.362;6.946;2024-02-04T13:16:43;7.97;;;7.17;;
4614;SDS011;2320;51.362;6.946;2024-02-04T13:19:08;9.70;;;7.90;;
4614;SDS011;2320;51.362;6.946;2024-02-04T13:21:34;12.40;;;8.17;;
4614;SDS011;2320;51.362;6.946;2024-02-04T13:24:00;8.33;;;7.30;;
4614;SDS011;2320;51.362;6.946;2024-02-04T13:26:25;7.40;;;6.73;;
4614;SDS011;2320;51.362;6.946;2024-02-04T13:28:51;8.27;;;7.03;;
4614;SDS011;2320;51.362;6.946;2024-02-04T13:31:17;12.43;;;6.90;;
4614;SDS011;2320;51.362;6.946;2024-02-04T13:33:42;9.27;;;7.10;;
4614;SDS011;2320;51.362;6.946;2024-02-04T13:36:08;8.80;;;7.30;;
4614;SDS011;2320;51.362;6.946;2024-02-04T13:38:34;8.77;;;7.80;;
4614;SDS011;2320;51.362;6.946;2024-02-04T13:41:01;10.07;;;9.00;;
4614;SDS011;2320;51.362;6.946;2024-02-04T13:43:29;9.40;;;8.37;;
4614;SDS011;2320;51.362;6.946;2024-02-04T13:45:55;11.37;;;10.23;;
4614;SDS011;2320;51.362;6.946;2024-02-04T13:48:21;13.20;;;9.07;;
4614;SDS011;2320;51.362;6.946;2024-02-04T13:50:47;10.20;;;9.20;;
4614;SDS011;2320;51.362;6.946;2024-02-04T13:53:13;10.43;;;9.33;;
4614;SDS011;2320;51.362;6.946;2024-02-04T13:55:39;11.03;;;9.63;;
4614;SDS011;2320;51.362;6.946;2024-02-04T13:58:05;12.17;;;9.60;;
4614;SDS011;2320;51.362;6.946;2024-02-04T14:00:31;11.20;;;8.80;;
4614;SDS011;2320;51.362;6.946;2024-02-04T14:02:56;10.40;;;9.33;;
4614;SDS011;2320;51.362;6.946;2024-02-04T14:05:22;18.30;;;10.17;;
4614;SDS011;2320;51.362;6.946;2024-02-04T14:07:50;13.50;;;10.50;;
4614;SDS011;2320;51.362;6.946;2024-02-04T14:10:15;12.30;;;11.00;;
4614;SDS011;2320;51.362;6.946;2024-02-04T14:12:41;10.50;;;9.20;;
4614;SDS011;2320;51.362;6.946;2024-02-04T14:15:10;9.13;;;8.23;;
4614;SDS011;2320;51.362;6.946;2024-02-04T14:17:38;9.60;;;8.37;;
4614;SDS011;2320;51.362;6.946;2024-02-04T14:20:05;10.03;;;9.13;;
4614;SDS011;2320;51.362;6.946;2024-02-04T14:22:31;8.67;;;7.97;;
4614;SDS011;2320;51.362;6.946;2024-02-04T14:24:57;9.73;;;7.80;;
4614;SDS011;2320;51.362;6.946;2024-02-04T14:27:24;11.50;;;9.90;;
4614;SDS011;2320;51.362;6.946;2024-02-04T14:29:50;13.17;;;9.70;;
4614;SDS011;2320;51.362;6.946;2024-02-04T14:32:16;12.57;;;10.43;;
4614;SDS011;2320;51.362;6.946;2024-02-04T14:34:41;22.23;;;11.53;;
4614;SDS011;2320;51.362;6.946;2024-02-04T14:37:07;18.87;;;9.70;;
4614;SDS011;2320;51.362;6.946;2024-02-04T14:39:33;10.67;;;9.67;;
4614;SDS011;2320;51.362;6.946;2024-02-04T14:41:59;13.47;;;9.53;;
4614;SDS011;2320;51.362;6.946;2024-02-04T14:44:24;11.50;;;8.90;;
4614;SDS011;2320;51.362;6.946;2024-02-04T14:46:50;10.60;;;9.60;;
4614;SDS011;2320;51.362;6.946;2024-02-04T14:49:15;12.23;;;9.20;;
4614;SDS011;2320;51.362;6.946;2024-02-04T14:51:41;11.63;;;8.50;;
4614;SDS011;2320;51.362;6.946;2024-02-04T14:54:07;12.03;;;9.20;;
4614;SDS011;2320;51.362;6.946;2024-02-04T14:56:39;12.43;;;9.70;;
4614;SDS011;2320;51.362;6.946;2024-02-04T14:59:05;10.53;;;9.20;;
4614;SDS011;2320;51.362;6.946;2024-02-04T15:01:32;10.90;;;9.30;;
4614;SDS011;2320;51.362;6.946;2024-02-04T15:03:58;16.40;;;10.30;;
4614;SDS011;2320;51.362;6.946;2024-02-04T15:06:23;9.50;;;8.30;;
4614;SDS011;2320;51.362;6.946;2024-02-04T15:08:49;15.17;;;10.30;;
4614;SDS011;2320;51.362;6.946;2024-02-04T15:11:15;12.30;;;9.10;;
4614;SDS011;2320;51.362;6.946;2024-02-04T15:13:40;17.73;;;8.50;;